createdAt,value
2022-11-15T00:00:48.651Z,81.77
2022-11-15T00:03:35.684Z,81.72
2022-11-15T00:06:21.296Z,81.56
2022-11-15T00:09:09.223Z,81.87
2022-11-15T00:12:06.313Z,81.78
2022-11-15T00:14:57.994Z,81.90
2022-11-15T00:17:43.729Z,81.55
2022-11-15T00:20:29.373Z,81.88
2022-11-15T00:23:15.247Z,81.84
2022-11-15T00:26:00.740Z,81.88
2022-11-15T00:28:46.695Z,81.72
2022-11-15T00:31:32.922Z,81.58
2022-11-15T00:34:26.325Z,81.50
2022-11-15T00:37:11.629Z,81.50
2022-11-15T00:39:56.687Z,81.45
2022-11-15T00:42:48.601Z,81.75
2022-11-15T00:45:36.654Z,81.52
2022-11-15T00:48:22.810Z,81.83
2022-11-15T00:51:08.453Z,81.76
2022-11-15T00:53:54.776Z,81.68
2022-11-15T00:56:41.237Z,81.83
2022-11-15T00:59:29.413Z,81.71
2022-11-15T01:02:14.921Z,82.10
2022-11-15T01:05:00.386Z,82.11
2022-11-15T01:07:45.668Z,81.80
2022-11-15T01:10:39.577Z,82.31
2022-11-15T01:13:28.668Z,82.04
2022-11-15T01:16:23.424Z,82.03
2022-11-15T01:19:11.567Z,82.14
2022-11-15T01:22:00.948Z,82.15
2022-11-15T01:24:48.086Z,82.29
2022-11-15T01:27:37.700Z,82.26
2022-11-15T01:30:23.114Z,81.97
2022-11-15T01:33:10.789Z,81.99
2022-11-15T01:35:56.393Z,81.90
2022-11-15T01:38:44.181Z,81.95
2022-11-15T01:41:33.522Z,81.88
2022-11-15T01:44:32.158Z,81.80
2022-11-15T01:47:18.427Z,81.55
2022-11-15T01:50:04.459Z,81.46
2022-11-15T01:52:50.196Z,81.38
2022-11-15T01:55:35.965Z,81.36
2022-11-15T01:58:21.383Z,81.40
2022-11-15T02:01:06.727Z,81.65
2022-11-15T02:03:55.284Z,81.44
2022-11-15T02:06:41.114Z,81.67
2022-11-15T02:09:26.223Z,81.26
2022-11-15T02:12:11.806Z,81.33
2022-11-15T02:14:59.914Z,81.22
2022-11-15T02:18:04.078Z,81.31
2022-11-15T02:20:54.925Z,80.99
2022-11-15T02:23:43.229Z,81.19
2022-11-15T02:26:38.286Z,81.35
2022-11-15T02:29:44.065Z,81.37
2022-11-15T02:32:37.476Z,81.17
2022-11-15T02:35:28.714Z,81.20
2022-11-15T02:38:13.603Z,81.28
2022-11-15T02:41:33.159Z,81.32
2022-11-15T02:44:20.930Z,81.37
2022-11-15T02:47:16.169Z,81.17
2022-11-15T02:50:09.263Z,81.45
2022-11-15T02:52:54.324Z,81.58
2022-11-15T02:55:42.601Z,81.50
2022-11-15T02:58:27.690Z,81.51
2022-11-15T03:01:15.806Z,81.90
2022-11-15T03:04:05.012Z,81.55
2022-11-15T03:07:07.056Z,81.67
2022-11-15T03:09:56.523Z,81.57
2022-11-15T03:12:47.404Z,81.92
2022-11-15T03:15:33.224Z,81.92
2022-11-15T03:18:22.957Z,81.57
2022-11-15T03:21:09.575Z,81.55
2022-11-15T03:23:56.324Z,81.74
2022-11-15T03:26:41.744Z,81.52
2022-11-15T03:29:34.160Z,81.76
2022-11-15T03:32:20.721Z,81.66
2022-11-15T03:35:06.633Z,81.84
2022-11-15T03:37:53.590Z,81.97
2022-11-15T03:40:42.976Z,81.90
2022-11-15T03:43:34.137Z,81.86
2022-11-15T03:46:49.134Z,81.74
2022-11-15T03:49:35.400Z,81.83
2022-11-15T03:52:21.401Z,81.89
2022-11-15T03:55:07.489Z,81.81
2022-11-15T03:57:54.620Z,81.63
2022-11-15T04:00:39.852Z,82.00
2022-11-15T04:03:25.361Z,81.98
2022-11-15T04:06:10.927Z,81.93
2022-11-15T04:08:55.963Z,82.10
2022-11-15T04:11:41.021Z,81.82
2022-11-15T04:14:26.146Z,82.08
2022-11-15T04:17:11.305Z,81.92
2022-11-15T04:20:15.575Z,82.31
2022-11-15T04:23:20.797Z,82.05
2022-11-15T04:26:13.757Z,82.08
2022-11-15T04:29:17.955Z,81.96
2022-11-15T04:32:04.440Z,82.15
2022-11-15T04:34:52.272Z,82.10
2022-11-15T04:37:37.832Z,82.14
2022-11-15T04:40:23.711Z,82.18
2022-11-15T04:43:09.631Z,82.13
2022-11-15T04:45:58.740Z,82.23
2022-11-15T04:48:47.478Z,82.08
2022-11-15T04:51:43.053Z,81.84
2022-11-15T04:54:28.567Z,82.04
2022-11-15T04:57:14.166Z,81.96
2022-11-15T04:59:59.312Z,81.83
2022-11-15T05:03:09.591Z,82.04
2022-11-15T05:05:55.392Z,82.00
2022-11-15T05:08:40.534Z,82.32
2022-11-15T05:11:28.456Z,82.09
2022-11-15T05:14:14.545Z,82.13
2022-11-15T05:16:59.684Z,82.06
2022-11-15T05:19:45.741Z,82.53
2022-11-15T05:22:36.562Z,82.40
2022-11-15T05:25:22.551Z,82.34
2022-11-15T05:28:07.912Z,82.20
2022-11-15T05:30:52.922Z,82.25
2022-11-15T05:33:41.870Z,82.55
2022-11-15T05:36:35.896Z,82.30
2022-11-15T05:39:21.159Z,82.27
2022-11-15T05:42:06.120Z,82.13
2022-11-15T05:44:51.149Z,82.29
2022-11-15T05:47:36.575Z,82.54
2022-11-15T05:50:22.144Z,82.26
2022-11-15T05:53:07.871Z,82.06
2022-11-15T05:55:52.995Z,82.40
2022-11-15T05:58:38.045Z,82.17
2022-11-15T06:01:23.765Z,82.26
2022-11-15T06:04:09.016Z,82.35
2022-11-15T06:06:54.668Z,82.19
2022-11-15T06:09:40.061Z,82.27
2022-11-15T06:12:25.250Z,82.17
2022-11-15T06:15:10.395Z,82.03
2022-11-15T06:17:59.476Z,82.13
2022-11-15T06:20:44.749Z,82.35
2022-11-15T06:23:32.633Z,82.27
2022-11-15T06:26:18.259Z,82.17
2022-11-15T06:29:05.487Z,82.04
2022-11-15T06:31:50.927Z,82.01
2022-11-15T06:34:37.094Z,82.11
2022-11-15T06:37:22.118Z,82.17
2022-11-15T06:40:08.395Z,82.18
2022-11-15T06:42:58.258Z,82.26
2022-11-15T06:45:43.259Z,82.30
2022-11-15T06:48:28.729Z,82.14
2022-11-15T06:51:13.641Z,82.24
2022-11-15T06:53:58.518Z,81.94
2022-11-15T06:56:45.026Z,82.41
2022-11-15T06:59:30.361Z,82.09
2022-11-15T07:02:17.060Z,82.17
2022-11-15T07:05:02.535Z,82.50
2022-11-15T07:07:52.320Z,82.44
2022-11-15T07:10:37.505Z,82.45
2022-11-15T07:13:25.552Z,82.69
2022-11-15T07:16:11.615Z,82.33
2022-11-15T07:18:56.878Z,82.40
2022-11-15T07:21:41.933Z,82.81
2022-11-15T07:24:26.844Z,82.61
2022-11-15T07:27:12.451Z,82.87
2022-11-15T07:29:58.008Z,82.87
2022-11-15T07:32:43.453Z,82.89
2022-11-15T07:35:29.282Z,82.85
2022-11-15T07:38:16.013Z,82.77
2022-11-15T07:41:02.906Z,83.12
2022-11-15T07:43:48.155Z,82.79
2022-11-15T07:46:33.108Z,83.00
2022-11-15T07:49:18.152Z,82.93
2022-11-15T07:52:05.398Z,83.16
2022-11-15T07:54:50.445Z,83.14
2022-11-15T07:57:35.452Z,83.47
2022-11-15T08:00:20.578Z,83.42
2022-11-15T08:03:09.935Z,83.23
2022-11-15T08:05:58.104Z,83.20
2022-11-15T08:08:43.487Z,83.51
2022-11-15T08:11:28.897Z,83.55
2022-11-15T08:14:14.144Z,83.65
2022-11-15T08:16:59.576Z,83.80
2022-11-15T08:19:44.543Z,83.41
2022-11-15T08:22:30.032Z,83.70
2022-11-15T08:25:15.117Z,83.85
2022-11-15T08:28:02.027Z,83.57
2022-11-15T08:30:47.108Z,83.86
2022-11-15T08:33:32.851Z,83.79
2022-11-15T08:36:18.331Z,84.01
2022-11-15T08:39:04.248Z,83.84
2022-11-15T08:41:49.787Z,84.09
2022-11-15T08:44:35.094Z,83.80
2022-11-15T08:47:20.143Z,83.83
2022-11-15T08:50:05.383Z,83.92
2022-11-15T08:52:50.669Z,84.10
2022-11-15T08:55:39.107Z,84.14
2022-11-15T08:58:24.538Z,84.25
2022-11-15T09:01:19.351Z,83.88
2022-11-15T09:04:05.140Z,84.28
2022-11-15T09:06:50.628Z,84.22
2022-11-15T09:09:36.137Z,84.27
2022-11-15T09:12:21.605Z,84.17
2022-11-15T09:15:06.927Z,84.09
2022-11-15T09:17:52.470Z,84.12
2022-11-15T09:20:37.928Z,84.28
2022-11-15T09:23:24.177Z,84.39
2022-11-15T09:26:09.643Z,84.30
2022-11-15T09:28:55.103Z,84.10
2022-11-15T09:31:40.498Z,84.18
2022-11-15T09:34:25.892Z,84.06
2022-11-15T09:37:11.397Z,84.12
2022-11-15T09:39:57.013Z,84.04
2022-11-15T09:42:51.227Z,84.13
2022-11-15T09:45:46.924Z,83.95
2022-11-15T09:48:36.861Z,83.82
2022-11-15T09:51:34.965Z,83.88
2022-11-15T09:54:46.067Z,83.97
2022-11-15T09:57:04.509Z,83.88
2022-11-15T09:59:32.606Z,83.82
2022-11-15T10:02:02.620Z,83.66
2022-11-15T10:04:29.669Z,83.59
2022-11-15T10:06:59.646Z,83.16
2022-11-15T10:09:46.824Z,83.30
2022-11-15T10:12:13.582Z,83.20
2022-11-15T10:14:40.213Z,82.89
2022-11-15T10:17:15.299Z,82.64
2022-11-15T10:19:54.137Z,82.82
2022-11-15T10:22:30.063Z,82.35
2022-11-15T10:25:15.644Z,82.36
2022-11-15T10:27:42.368Z,82.16
2022-11-15T10:30:13.396Z,81.93
2022-11-15T10:32:40.287Z,81.81
2022-11-15T10:35:22.117Z,81.70
2022-11-15T10:37:48.773Z,81.10
2022-11-15T10:40:24.995Z,81.32
2022-11-15T10:43:06.072Z,81.22
2022-11-15T10:45:33.381Z,80.67
2022-11-15T10:48:15.308Z,80.70
2022-11-15T10:50:42.620Z,80.33
2022-11-15T10:53:21.182Z,80.22
2022-11-15T10:55:48.492Z,80.03
2022-11-15T10:58:22.855Z,79.75
2022-11-15T11:00:49.510Z,78.96
2022-11-15T11:03:28.462Z,79.07
2022-11-15T11:06:05.636Z,78.41
2022-11-15T11:08:33.303Z,78.09
2022-11-15T11:11:03.134Z,77.92
2022-11-15T11:13:31.429Z,77.50
2022-11-15T11:16:01.120Z,77.37
2022-11-15T11:18:34.465Z,77.14
2022-11-15T11:21:05.498Z,77.15
2022-11-15T11:23:51.785Z,76.69
2022-11-15T11:26:25.067Z,76.04
2022-11-15T11:28:57.794Z,75.50
2022-11-15T11:31:27.373Z,75.17
2022-11-15T11:33:53.979Z,74.90
2022-11-15T11:36:28.916Z,74.69
2022-11-15T11:39:07.214Z,74.22
2022-11-15T11:41:43.759Z,74.07
2022-11-15T11:44:13.355Z,73.51
2022-11-15T11:46:58.936Z,73.34
2022-11-15T11:49:28.177Z,72.94
2022-11-15T11:52:01.906Z,72.53
2022-11-15T11:54:37.017Z,72.15
2022-11-15T11:57:04.305Z,72.00
2022-11-15T11:59:30.892Z,71.63
2022-11-15T12:01:57.792Z,71.43
2022-11-15T12:04:31.357Z,71.36
2022-11-15T12:07:00.119Z,71.05
2022-11-15T12:09:30.461Z,70.85
2022-11-15T12:12:17.644Z,70.81
2022-11-15T12:14:55.838Z,70.34
2022-11-15T12:17:26.308Z,70.22
2022-11-15T12:20:13.220Z,69.90
2022-11-15T12:22:53.388Z,69.74
2022-11-15T12:25:22.415Z,69.86
2022-11-15T12:27:55.027Z,69.53
2022-11-15T12:30:22.242Z,69.47
2022-11-15T12:32:50.714Z,69.18
2022-11-15T12:35:28.541Z,68.79
2022-11-15T12:37:58.995Z,68.72
2022-11-15T12:40:25.744Z,68.50
2022-11-15T12:43:02.591Z,68.37
2022-11-15T12:45:29.265Z,68.78
2022-11-15T12:47:57.368Z,68.21
2022-11-15T12:50:42.859Z,68.24
2022-11-15T12:53:25.122Z,67.81
2022-11-15T12:56:04.059Z,67.99
2022-11-15T12:58:47.721Z,67.97
2022-11-15T13:01:33.304Z,67.91
2022-11-15T13:04:12.239Z,67.81
2022-11-15T13:06:43.488Z,67.66
2022-11-15T13:09:48.676Z,67.52
2022-11-15T13:12:27.501Z,67.13
2022-11-15T13:15:00.917Z,66.96
2022-11-15T13:17:32.245Z,66.85
2022-11-15T13:19:59.826Z,66.87
2022-11-15T13:22:51.848Z,67.12
2022-11-15T13:25:20.251Z,67.02
2022-11-15T13:27:48.405Z,67.10
2022-11-15T13:30:16.677Z,67.00
2022-11-15T13:32:43.248Z,66.96
2022-11-15T13:35:09.813Z,66.51
2022-11-15T13:37:36.663Z,66.95
2022-11-15T13:40:21.586Z,67.14
2022-11-15T13:42:48.201Z,66.97
2022-11-15T13:45:16.126Z,66.98
2022-11-15T13:47:42.715Z,66.50
2022-11-15T13:50:12.692Z,66.76
2022-11-15T13:52:40.615Z,66.30
2022-11-15T13:55:12.232Z,66.09
2022-11-15T13:57:43.894Z,66.03
2022-11-15T14:00:25.755Z,66.14
2022-11-15T14:02:52.352Z,66.20
2022-11-15T14:05:20.108Z,66.74
2022-11-15T14:07:59.856Z,66.70
2022-11-15T14:10:28.837Z,66.78
2022-11-15T14:12:55.519Z,66.83
2022-11-15T14:15:31.344Z,66.81
2022-11-15T14:17:58.036Z,66.94
2022-11-15T14:20:29.557Z,66.68
2022-11-15T14:22:56.967Z,67.07
2022-11-15T14:25:24.801Z,67.96
2022-11-15T14:28:10.607Z,68.23
2022-11-15T14:30:37.277Z,69.03
2022-11-15T14:33:13.034Z,69.37
2022-11-15T14:35:39.716Z,69.80
2022-11-15T14:38:06.328Z,70.27
2022-11-15T14:40:33.032Z,70.96
2022-11-15T14:42:59.650Z,71.59
2022-11-15T14:45:27.776Z,72.53
2022-11-15T14:47:54.420Z,73.02
2022-11-15T14:50:21.616Z,73.38
2022-11-15T14:52:48.917Z,74.17
2022-11-15T14:55:15.509Z,74.23
2022-11-15T14:57:42.139Z,74.62
2022-11-15T15:00:10.033Z,75.17
2022-11-15T15:02:39.836Z,75.54
2022-11-15T15:05:16.855Z,75.81
2022-11-15T15:07:43.687Z,75.68
2022-11-15T15:10:39.660Z,76.23
2022-11-15T15:12:57.184Z,76.20
2022-11-15T15:15:33.064Z,76.10
2022-11-15T15:17:59.730Z,76.38
2022-11-15T15:20:26.402Z,76.58
2022-11-15T15:22:53.057Z,76.40
2022-11-15T15:25:28.429Z,76.46
2022-11-15T15:27:55.609Z,76.48
2022-11-15T15:30:26.827Z,76.46
2022-11-15T15:32:53.524Z,76.75
2022-11-15T15:35:20.143Z,76.52
2022-11-15T15:37:47.537Z,76.61
2022-11-15T15:40:14.133Z,76.86
2022-11-15T15:42:40.797Z,76.83
2022-11-15T15:45:08.048Z,76.90
2022-11-15T15:47:34.749Z,77.12
2022-11-15T15:50:01.473Z,76.80
2022-11-15T15:52:28.275Z,76.80
2022-11-15T15:54:54.968Z,77.02
2022-11-15T15:57:21.596Z,76.94
2022-11-15T15:59:48.234Z,77.06
2022-11-15T16:02:14.942Z,77.32
2022-11-15T16:04:41.555Z,77.17
2022-11-15T16:07:09.445Z,77.47
2022-11-15T16:09:55.114Z,77.42
2022-11-15T16:12:21.800Z,77.11
2022-11-15T16:14:50.937Z,77.58
2022-11-15T16:17:24.570Z,77.55
2022-11-15T16:19:51.163Z,77.56
2022-11-15T16:22:17.827Z,77.64
2022-11-15T16:24:44.477Z,78.04
2022-11-15T16:27:17.629Z,78.04
2022-11-15T16:29:44.438Z,77.79
2022-11-15T16:32:11.259Z,77.96
2022-11-15T16:34:43.813Z,77.77
2022-11-15T16:37:19.982Z,78.19
2022-11-15T16:39:46.644Z,77.96
2022-11-15T16:42:13.277Z,77.94
2022-11-15T16:44:39.860Z,77.95
2022-11-15T16:47:10.973Z,78.30
2022-11-15T16:49:37.598Z,78.27
2022-11-15T16:52:04.210Z,78.11
2022-11-15T16:54:30.780Z,78.20
2022-11-15T16:56:57.400Z,78.08
2022-11-15T16:59:24.008Z,78.29
2022-11-15T17:01:53.581Z,78.63
2022-11-15T17:04:22.698Z,78.69
2022-11-15T17:06:49.593Z,78.77
2022-11-15T17:09:18.191Z,78.78
2022-11-15T17:11:44.949Z,79.00
2022-11-15T17:14:12.133Z,78.93
2022-11-15T17:16:42.406Z,79.17
2022-11-15T17:19:13.219Z,79.33
2022-11-15T17:21:39.924Z,79.18
2022-11-15T17:24:06.608Z,79.47
2022-11-15T17:26:37.613Z,79.67
2022-11-15T17:29:09.070Z,79.95
2022-11-15T17:31:36.359Z,79.85
2022-11-15T17:34:03.435Z,79.72
2022-11-15T17:36:30.308Z,79.84
2022-11-15T17:38:59.677Z,80.06
2022-11-15T17:41:27.117Z,79.98
2022-11-15T17:43:53.749Z,79.98
2022-11-15T17:46:21.109Z,80.13
2022-11-15T17:48:48.084Z,80.46
2022-11-15T17:51:15.899Z,80.26
2022-11-15T17:53:43.599Z,80.36
2022-11-15T17:56:11.471Z,80.70
2022-11-15T17:58:38.212Z,80.68
2022-11-15T18:01:05.949Z,80.55
2022-11-15T18:03:38.766Z,80.99
2022-11-15T18:06:05.964Z,80.78
2022-11-15T18:08:32.946Z,81.06
2022-11-15T18:11:03.758Z,81.27
2022-11-15T18:13:30.643Z,81.40
2022-11-15T18:16:02.537Z,81.27
2022-11-15T18:18:33.170Z,81.69
2022-11-15T18:21:04.364Z,81.69
2022-11-15T18:23:31.493Z,81.72
2022-11-15T18:25:58.453Z,81.78
2022-11-15T18:28:32.399Z,81.64
2022-11-15T18:30:59.249Z,82.01
2022-11-15T18:33:26.717Z,81.91
2022-11-15T18:36:03.648Z,82.32
2022-11-15T18:38:31.197Z,82.25
2022-11-15T18:41:08.207Z,82.09
2022-11-15T18:43:35.254Z,82.26
2022-11-15T18:46:03.284Z,82.38
2022-11-15T18:48:31.391Z,82.43
2022-11-15T18:51:05.098Z,82.60
2022-11-15T18:53:32.975Z,82.62
2022-11-15T18:56:07.440Z,82.50
2022-11-15T19:01:48.503Z,82.83
2022-11-15T19:04:17.669Z,82.84
2022-11-15T19:06:45.031Z,82.73
2022-11-15T19:09:12.305Z,82.55
2022-11-15T19:11:39.814Z,82.74
2022-11-15T19:14:07.952Z,82.68
2022-11-15T19:16:36.212Z,82.78
2022-11-15T19:19:04.079Z,83.17
2022-11-15T19:21:33.862Z,82.81
2022-11-15T19:24:00.666Z,82.91
2022-11-15T19:26:27.834Z,83.12
2022-11-15T19:28:55.300Z,82.85
2022-11-15T19:31:23.704Z,83.21
2022-11-15T19:33:50.714Z,82.87
2022-11-15T19:36:19.223Z,83.04
2022-11-15T19:38:46.044Z,83.05
2022-11-15T19:41:16.644Z,83.13
2022-11-15T19:43:43.484Z,82.84
2022-11-15T19:46:11.369Z,83.26
2022-11-15T19:48:38.228Z,83.24
2022-11-15T19:51:11.664Z,83.15
2022-11-15T19:53:38.987Z,82.97
2022-11-15T19:56:06.938Z,82.92
2022-11-15T19:58:34.782Z,83.10
2022-11-15T20:01:03.191Z,82.78
2022-11-15T20:03:30.967Z,82.78
2022-11-15T20:06:08.320Z,82.98
2022-11-15T20:08:35.433Z,83.26
2022-11-15T20:11:03.264Z,82.90
2022-11-15T20:13:30.007Z,83.03
2022-11-15T20:15:56.945Z,82.91
2022-11-15T20:18:23.964Z,82.94
2022-11-15T20:20:50.664Z,82.92
2022-11-15T20:23:17.512Z,82.95
2022-11-15T20:25:47.469Z,82.82
2022-11-15T20:28:15.482Z,83.15
2022-11-15T20:30:45.939Z,83.29
2022-11-15T20:33:13.093Z,83.18
2022-11-15T20:35:39.810Z,82.92
2022-11-15T20:38:07.085Z,82.93
2022-11-15T20:40:33.889Z,83.06
2022-11-15T20:43:08.598Z,83.18
2022-11-15T20:45:35.438Z,83.11
2022-11-15T20:48:02.146Z,83.63
2022-11-15T20:50:42.289Z,83.25
2022-11-15T20:53:10.601Z,83.54
2022-11-15T20:55:41.662Z,83.42
2022-11-15T20:58:08.952Z,83.56
2022-11-15T21:00:38.210Z,83.38
2022-11-15T21:03:07.009Z,83.45
2022-11-15T21:05:54.376Z,83.49
2022-11-15T21:08:21.151Z,83.77
2022-11-15T21:11:08.096Z,83.81
2022-11-15T21:13:38.093Z,83.59
2022-11-15T21:16:05.044Z,83.73
2022-11-15T21:18:32.373Z,83.79
2022-11-15T21:21:03.058Z,84.05
2022-11-15T21:23:30.006Z,84.05
2022-11-15T21:25:56.670Z,84.24
2022-11-15T21:28:23.311Z,84.39
2022-11-15T21:30:58.909Z,84.28
2022-11-15T21:33:27.554Z,84.38
2022-11-15T21:35:55.120Z,84.39
2022-11-15T21:38:23.794Z,84.48
2022-11-15T21:40:51.106Z,84.32
2022-11-15T21:43:18.141Z,84.15
2022-11-15T21:45:49.979Z,84.65
2022-11-15T21:48:16.749Z,84.33
2022-11-15T21:50:43.377Z,84.54
2022-11-15T21:53:10.031Z,84.56
2022-11-15T21:55:39.034Z,84.44
2022-11-15T21:58:08.485Z,84.57
2022-11-15T22:00:54.034Z,84.55
2022-11-15T22:03:20.669Z,84.67
2022-11-15T22:05:47.317Z,84.73
2022-11-15T22:08:13.933Z,84.54
2022-11-15T22:10:40.663Z,84.60
2022-11-15T22:13:07.472Z,84.42
2022-11-15T22:15:34.060Z,84.49
2022-11-15T22:18:00.826Z,84.70
2022-11-15T22:20:44.009Z,84.53
2022-11-15T22:23:11.742Z,84.51
2022-11-15T22:25:38.375Z,84.88
2022-11-15T22:28:05.074Z,84.88
2022-11-15T22:30:31.843Z,84.96
2022-11-15T22:32:58.532Z,84.51
2022-11-15T22:35:25.178Z,84.56
2022-11-15T22:37:52.901Z,84.97
2022-11-15T22:40:19.613Z,84.92
2022-11-15T22:42:46.569Z,84.92
2022-11-15T22:45:13.205Z,84.80
2022-11-15T22:47:39.897Z,84.81
2022-11-15T22:50:06.830Z,84.99
2022-11-15T22:52:33.530Z,85.08
2022-11-15T22:55:00.157Z,85.08
2022-11-15T22:57:26.797Z,85.13
2022-11-15T22:59:53.487Z,85.25
2022-11-15T23:02:20.186Z,85.34
2022-11-15T23:04:47.352Z,85.01
2022-11-15T23:07:14.261Z,85.23
2022-11-15T23:09:42.955Z,84.90
2022-11-15T23:12:30.401Z,85.10
2022-11-15T23:14:57.108Z,84.90
2022-11-15T23:17:23.747Z,85.25
2022-11-15T23:19:50.398Z,84.97
2022-11-15T23:22:35.723Z,84.91
2022-11-15T23:25:02.420Z,85.18
2022-11-15T23:27:30.796Z,85.43
2022-11-15T23:30:17.706Z,85.52
2022-11-15T23:33:03.080Z,85.47
2022-11-15T23:35:30.802Z,85.22
2022-11-15T23:38:01.100Z,85.48
2022-11-15T23:40:27.821Z,85.32
2022-11-15T23:42:54.475Z,85.32
2022-11-15T23:45:27.192Z,85.67
2022-11-15T23:47:58.457Z,85.48
2022-11-15T23:50:31.706Z,85.65
2022-11-15T23:52:58.436Z,85.97
2022-11-15T23:55:25.132Z,85.73
2022-11-15T23:58:03.119Z,85.97
